Time;durP1;ratioP1;P1;durP2;ratioP2;P2;SDS_P1;SDS_P2;PMS_P1;PMS_P2;Temp;Humidity;BMP_temperature;BMP_pressure;BME280_temperature;BME280_humidity;BME280_pressure;Samples;Min_cycle;Max_cycle;Signal;HPM_P1;HPM_P2
2022/04/07 00:02:13;;;;;;;1.15;0.60;;;11.90;92.00;;;;;;5026027;28;20230;-73
2022/04/07 00:04:40;;;;;;;1.00;0.50;;;11.90;92.00;;;;;;5025199;28;20053;-73
2022/04/07 00:07:08;;;;;;;1.45;0.70;;;12.00;92.10;;;;;;5019367;28;20145;-74
2022/04/07 00:09:35;;;;;;;0.70;0.40;;;11.90;91.90;;;;;;5019935;28;20042;-74
2022/04/07 00:12:03;;;;;;;1.10;0.47;;;12.00;91.90;;;;;;5017469;28;20037;-75
2022/04/07 00:14:29;;;;;;;2.05;0.52;;;12.00;91.90;;;;;;5023430;28;20041;-74
2022/04/07 00:16:56;;;;;;;0.70;0.40;;;12.00;91.90;;;;;;5023808;28;20151;-74
2022/04/07 00:19:23;;;;;;;1.52;0.65;;;12.00;91.90;;;;;;5019044;28;20051;-74
2022/04/07 00:21:50;;;;;;;1.73;0.60;;;12.00;91.90;;;;;;5018843;28;20045;-74
2022/04/07 00:24:18;;;;;;;0.77;0.40;;;12.00;91.80;;;;;;5018315;28;20049;-74
2022/04/07 00:26:45;;;;;;;0.80;0.43;;;12.00;91.80;;;;;;5015096;28;20511;-74
2022/04/07 00:29:12;;;;;;;0.70;0.40;;;12.00;91.90;;;;;;5018015;28;20701;-75
2022/04/07 00:31:40;;;;;;;0.63;0.40;;;12.00;91.90;;;;;;5018051;28;20103;-74
2022/04/07 00:34:08;;;;;;;2.05;0.45;;;12.00;91.90;;;;;;5016585;28;20108;-74
2022/04/07 00:36:35;;;;;;;0.93;0.40;;;12.00;91.80;;;;;;5019364;28;20045;-73
2022/04/07 00:39:02;;;;;;;1.00;0.50;;;12.00;91.80;;;;;;5015300;28;20534;-73
2022/04/07 00:41:30;;;;;;;0.80;0.40;;;12.00;91.90;;;;;;5020156;28;20102;-74
2022/04/07 00:43:57;;;;;;;0.80;0.40;;;12.00;91.90;;;;;;5020193;28;20048;-74
2022/04/07 00:46:24;;;;;;;1.15;0.40;;;12.00;91.90;;;;;;5003045;28;20115;-75
2022/04/07 00:48:51;;;;;;;0.60;0.40;;;12.00;91.80;;;;;;5008664;28;20041;-74
2022/04/07 00:51:18;;;;;;;0.80;0.40;;;12.00;91.90;;;;;;5016225;28;20053;-73
2022/04/07 00:53:46;;;;;;;1.23;0.50;;;12.00;91.90;;;;;;5002061;28;20049;-74
2022/04/07 00:56:13;;;;;;;0.88;0.50;;;12.00;92.20;;;;;;5043683;28;20014;-74
2022/04/07 00:58:42;;;;;;;0.90;0.43;;;12.00;91.90;;;;;;5024446;28;20498;-74
2022/04/07 01:01:09;;;;;;;0.60;0.32;;;12.00;91.80;;;;;;5010110;28;20141;-75
2022/04/07 01:03:36;;;;;;;0.75;0.35;;;12.00;91.90;;;;;;5019125;28;20147;-74
2022/04/07 01:06:03;;;;;;;0.80;0.40;;;12.00;91.80;;;;;;5013485;28;20054;-74
2022/04/07 01:08:31;;;;;;;1.00;0.35;;;12.00;91.90;;;;;;5015941;28;20046;-74
2022/04/07 01:10:57;;;;;;;1.00;0.47;;;12.00;91.80;;;;;;5007135;28;20045;-74
2022/04/07 01:13:51;;;;;;;1.20;0.47;;;12.00;91.70;;;;;;5016587;28;20061;-74
2022/04/07 01:16:19;;;;;;;0.95;0.40;;;12.00;91.80;;;;;;5019389;28;20033;-75
2022/04/07 01:18:46;;;;;;;1.40;0.40;;;12.00;91.80;;;;;;5017546;28;20042;-74
2022/04/07 01:21:15;;;;;;;1.08;0.50;;;12.00;91.70;;;;;;5015555;28;20041;-74
2022/04/07 01:23:51;;;;;;;1.33;0.50;;;12.00;91.70;;;;;;5027219;28;20037;-74
2022/04/07 01:26:21;;;;;;;1.15;0.40;;;12.00;91.80;;;;;;5030790;28;20119;-74
2022/04/07 01:28:49;;;;;;;0.95;0.50;;;12.00;91.70;;;;;;5017655;28;20720;-74
2022/04/07 01:31:16;;;;;;;1.25;0.50;;;12.00;91.80;;;;;;5020199;28;20091;-73
2022/04/07 01:33:43;;;;;;;1.83;0.50;;;12.00;91.70;;;;;;5010867;28;20049;-75
2022/04/07 01:36:11;;;;;;;0.70;0.38;;;12.00;91.70;;;;;;5020659;28;20053;-74
2022/04/07 01:38:38;;;;;;;0.82;0.35;;;12.00;91.50;;;;;;5015796;28;20049;-76
2022/04/07 01:41:05;;;;;;;0.82;0.40;;;12.00;91.70;;;;;;5021937;28;20042;-74
2022/04/07 01:43:34;;;;;;;0.95;0.30;;;12.00;91.70;;;;;;5014315;28;20575;-74
2022/04/07 01:46:01;;;;;;;1.15;0.40;;;12.00;91.70;;;;;;5007792;28;20042;-74
2022/04/07 01:48:30;;;;;;;0.80;0.38;;;12.00;91.60;;;;;;5016567;28;20041;-74
2022/04/07 01:50:57;;;;;;;0.90;0.40;;;12.00;91.60;;;;;;5022892;28;20042;-74
2022/04/07 01:53:26;;;;;;;1.75;0.40;;;12.10;91.60;;;;;;5014394;28;20059;-74
2022/04/07 01:55:53;;;;;;;1.67;0.50;;;12.00;91.60;;;;;;5013975;28;20100;-74
2022/04/07 01:58:20;;;;;;;1.73;0.50;;;12.00;91.50;;;;;;5014233;28;20049;-74
2022/04/07 02:00:49;;;;;;;1.27;0.40;;;12.00;91.50;;;;;;5017054;28;20033;-73
2022/04/07 02:03:15;;;;;;;1.55;0.40;;;12.00;91.60;;;;;;5017130;28;20047;-73
2022/04/07 02:05:42;;;;;;;0.82;0.40;;;12.00;91.60;;;;;;5018399;28;20111;-74
2022/04/07 02:08:09;;;;;;;1.50;0.40;;;12.00;91.50;;;;;;5017264;28;20056;-74
2022/04/07 02:10:36;;;;;;;1.15;0.50;;;12.00;91.40;;;;;;5022137;28;20140;-74
2022/04/07 02:13:03;;;;;;;1.55;0.40;;;12.00;91.80;;;;;;5014010;28;20072;-74
2022/04/07 02:15:30;;;;;;;0.85;0.30;;;12.00;91.50;;;;;;5022852;28;20041;-73
2022/04/07 02:17:58;;;;;;;1.98;0.50;;;12.00;91.60;;;;;;5030427;28;20049;-73
2022/04/07 02:20:25;;;;;;;1.13;0.32;;;12.00;91.60;;;;;;5025238;28;20061;-73
2022/04/07 02:22:52;;;;;;;1.13;0.40;;;12.00;91.60;;;;;;5018744;28;20451;-74
2022/04/07 02:25:23;;;;;;;1.10;0.40;;;12.00;91.50;;;;;;5024003;28;20041;-74
2022/04/07 02:27:50;;;;;;;1.08;0.57;;;12.00;91.40;;;;;;5021202;28;20068;-74
2022/04/07 02:30:17;;;;;;;1.00;0.40;;;12.00;91.40;;;;;;5011489;28;20112;-73
2022/04/07 02:32:44;;;;;;;2.38;0.50;;;12.00;91.40;;;;;;5023792;28;20119;-74
2022/04/07 02:35:13;;;;;;;0.93;0.40;;;12.00;91.50;;;;;;5020748;28;20041;-74
2022/04/07 02:37:42;;;;;;;0.70;0.40;;;12.10;91.50;;;;;;5019494;28;20510;-74
2022/04/07 02:40:10;;;;;;;0.80;0.30;;;12.00;91.40;;;;;;5021429;28;20052;-74
2022/04/07 02:42:37;;;;;;;1.00;0.40;;;12.00;91.50;;;;;;5024790;28;20554;-74
2022/04/07 02:45:05;;;;;;;0.60;0.30;;;12.00;91.50;;;;;;5028524;28;20187;-74
2022/04/07 02:47:32;;;;;;;1.58;0.38;;;12.00;91.50;;;;;;5013135;28;20049;-73
2022/04/07 02:49:59;;;;;;;1.10;0.38;;;12.00;91.50;;;;;;5016937;28;20420;-73
2022/04/07 02:52:27;;;;;;;0.88;0.35;;;12.00;91.50;;;;;;5018139;28;20132;-74
2022/04/07 02:54:54;;;;;;;2.10;0.40;;;12.00;91.50;;;;;;5002633;28;20471;-74
2022/04/07 02:57:25;;;;;;;1.10;0.40;;;12.00;91.50;;;;;;5017038;28;20045;-74
2022/04/07 02:59:52;;;;;;;1.42;0.50;;;12.00;91.40;;;;;;5001447;28;20037;-73
2022/04/07 03:02:19;;;;;;;1.10;0.30;;;12.00;91.40;;;;;;5020147;28;20049;-73
2022/04/07 03:04:46;;;;;;;0.75;0.40;;;12.00;91.40;;;;;;5022168;28;20132;-74
2022/04/07 03:07:13;;;;;;;0.90;0.43;;;12.00;91.40;;;;;;5011307;28;20091;-74
2022/04/07 03:09:42;;;;;;;0.90;0.40;;;12.00;91.40;;;;;;5009820;28;20051;-74
2022/04/07 03:12:10;;;;;;;0.85;0.40;;;12.00;91.40;;;;;;5019470;28;20069;-75
2022/04/07 03:14:38;;;;;;;1.73;0.40;;;12.00;91.40;;;;;;5021508;28;20057;-74
2022/04/07 03:17:05;;;;;;;1.23;0.40;;;12.00;91.30;;;;;;5013515;28;20095;-74
2022/04/07 03:19:32;;;;;;;0.90;0.40;;;12.00;91.40;;;;;;5025219;28;20098;-73
2022/04/07 03:21:59;;;;;;;1.23;0.50;;;12.00;91.30;;;;;;5034149;28;20552;-74
2022/04/07 03:24:26;;;;;;;1.13;0.30;;;12.00;91.30;;;;;;5031561;28;20041;-73
2022/04/07 03:26:55;;;;;;;1.30;0.45;;;12.00;91.30;;;;;;5007280;28;20069;-75
2022/04/07 03:29:22;;;;;;;1.38;0.50;;;12.00;91.30;;;;;;5022320;28;20077;-73
2022/04/07 03:31:49;;;;;;;1.90;0.40;;;12.00;91.40;;;;;;5025693;28;20041;-74
2022/04/07 03:34:16;;;;;;;1.30;0.50;;;12.00;91.30;;;;;;5027483;28;20048;-74
2022/04/07 03:36:43;;;;;;;1.20;0.50;;;12.00;91.30;;;;;;5008630;28;20068;-74
2022/04/07 03:39:10;;;;;;;0.75;0.40;;;12.00;91.20;;;;;;5041878;28;20051;-74
2022/04/07 03:41:36;;;;;;;1.92;0.52;;;12.00;91.20;;;;;;5017633;28;20091;-73
2022/04/07 03:44:09;;;;;;;1.08;0.40;;;12.00;91.70;;;;;;5014969;28;20042;-75
2022/04/07 03:46:36;;;;;;;0.85;0.38;;;12.00;91.30;;;;;;5020403;28;20066;-74
2022/04/07 03:49:04;;;;;;;2.17;0.45;;;12.00;91.20;;;;;;5021222;28;20045;-74
2022/04/07 03:51:30;;;;;;;1.40;0.50;;;12.00;91.20;;;;;;5027352;28;20045;-74
2022/04/07 03:53:57;;;;;;;1.50;0.50;;;12.00;91.30;;;;;;5019180;28;20053;-73
2022/04/07 03:56:24;;;;;;;1.15;0.40;;;12.00;91.20;;;;;;5018145;28;20061;-75
2022/04/07 03:58:51;;;;;;;1.77;0.40;;;12.00;91.20;;;;;;5018424;28;20049;-74
2022/04/07 04:01:19;;;;;;;1.10;0.40;;;12.00;91.20;;;;;;5016155;28;20052;-74
2022/04/07 04:03:46;;;;;;;0.95;0.30;;;12.00;91.20;;;;;;5014327;28;20152;-74
2022/04/07 04:06:22;;;;;;;1.52;0.40;;;12.00;91.20;;;;;;5016441;28;20049;-74
2022/04/07 04:08:49;;;;;;;1.13;0.40;;;12.00;91.20;;;;;;5019870;28;20487;-74
2022/04/07 04:11:16;;;;;;;1.70;0.40;;;12.00;91.20;;;;;;5020861;28;20037;-74
2022/04/07 04:13:43;;;;;;;1.52;0.50;;;12.00;91.20;;;;;;5012287;28;20041;-73
2022/04/07 04:16:10;;;;;;;1.15;0.40;;;12.00;91.20;;;;;;5018549;28;20661;-73
2022/04/07 04:18:38;;;;;;;2.55;0.32;;;12.00;91.20;;;;;;5016812;28;20054;-74
2022/04/07 04:21:05;;;;;;;0.55;0.25;;;12.00;91.10;;;;;;4993530;28;20141;-75
2022/04/07 04:23:32;;;;;;;0.82;0.30;;;12.00;91.20;;;;;;5017573;28;20045;-74
2022/04/07 04:25:59;;;;;;;1.67;0.70;;;12.00;91.10;;;;;;5027647;28;20052;-73
2022/04/07 04:28:26;;;;;;;0.90;0.47;;;12.00;91.20;;;;;;5022114;28;20103;-74
2022/04/07 04:30:53;;;;;;;1.38;0.40;;;12.00;91.20;;;;;;5013080;28;20038;-74
2022/04/07 04:33:19;;;;;;;1.90;0.52;;;12.00;91.20;;;;;;5012726;28;20057;-75
2022/04/07 04:35:51;;;;;;;1.00;0.40;;;12.00;91.20;;;;;;5013270;28;20037;-73
2022/04/07 04:38:18;;;;;;;1.95;0.50;;;12.00;91.10;;;;;;5021613;28;20049;-73
2022/04/07 04:40:44;;;;;;;2.30;0.60;;;12.00;91.20;;;;;;5022137;28;20053;-73
2022/04/07 04:43:11;;;;;;;1.08;0.40;;;12.00;91.20;;;;;;5020328;28;20688;-73
2022/04/07 04:45:38;;;;;;;1.05;0.40;;;12.00;91.20;;;;;;5014251;28;20041;-74
2022/04/07 04:48:05;;;;;;;0.80;0.50;;;12.00;91.20;;;;;;5017068;28;20044;-74
2022/04/07 04:50:33;;;;;;;1.13;0.40;;;12.00;91.20;;;;;;5023024;28;20045;-74
2022/04/07 04:53:01;;;;;;;1.50;0.43;;;12.00;91.20;;;;;;5020926;28;20065;-74
2022/04/07 04:55:28;;;;;;;1.02;0.30;;;12.00;91.20;;;;;;5019897;28;20377;-74
2022/04/07 04:57:55;;;;;;;1.40;0.32;;;12.00;91.10;;;;;;5015689;28;20048;-74
2022/04/07 05:00:22;;;;;;;1.35;0.50;;;12.00;91.20;;;;;;5021010;28;20052;-73
2022/04/07 05:02:49;;;;;;;1.10;0.40;;;12.00;91.20;;;;;;5010362;28;20037;-74
2022/04/07 05:05:15;;;;;;;1.13;0.35;;;12.00;91.20;;;;;;5019642;28;20042;-74
2022/04/07 05:07:42;;;;;;;2.83;0.50;;;12.00;91.50;;;;;;5018469;28;20073;-73
2022/04/07 05:10:11;;;;;;;0.88;0.32;;;12.00;91.30;;;;;;5024422;28;20037;-74
2022/04/07 05:12:37;;;;;;;1.27;0.30;;;12.00;91.20;;;;;;5018194;28;20037;-74
2022/04/07 05:15:06;;;;;;;0.82;0.30;;;12.00;91.20;;;;;;5006948;28;20045;-73
2022/04/07 05:17:33;;;;;;;0.82;0.30;;;12.00;91.20;;;;;;5019336;28;20049;-73
2022/04/07 05:20:00;;;;;;;1.00;0.50;;;12.00;91.20;;;;;;5023752;28;20060;-73
2022/04/07 05:22:26;;;;;;;0.68;0.30;;;12.00;91.20;;;;;;5009222;28;20060;-74
2022/04/07 05:24:53;;;;;;;2.42;0.30;;;12.00;91.30;;;;;;5007756;28;20486;-72
2022/04/07 05:27:22;;;;;;;1.42;0.38;;;12.00;91.40;;;;;;5004541;28;20180;-74
2022/04/07 05:29:48;;;;;;;1.30;0.40;;;12.00;91.30;;;;;;5021468;28;20036;-74
2022/04/07 05:32:15;;;;;;;0.85;0.30;;;12.00;91.30;;;;;;5016780;28;20045;-74
2022/04/07 05:34:42;;;;;;;1.30;0.32;;;12.00;91.20;;;;;;5018891;28;20049;-74
2022/04/07 05:37:09;;;;;;;0.90;0.50;;;12.00;91.30;;;;;;5022100;28;20112;-73
2022/04/07 05:39:36;;;;;;;0.70;0.40;;;12.00;91.30;;;;;;5022779;28;20132;-73
2022/04/07 05:42:03;;;;;;;1.52;0.40;;;12.00;91.40;;;;;;5022778;28;20645;-73
2022/04/07 05:44:31;;;;;;;1.42;0.40;;;12.00;91.40;;;;;;5021794;28;20056;-72
2022/04/07 05:46:58;;;;;;;1.30;0.50;;;12.00;91.50;;;;;;5024513;28;20057;-72
2022/04/07 05:49:25;;;;;;;1.40;0.30;;;12.00;91.60;;;;;;5021863;28;20045;-73
2022/04/07 05:51:54;;;;;;;0.98;0.32;;;12.00;91.60;;;;;;5017297;28;20037;-74
2022/04/07 05:54:21;;;;;;;0.52;0.30;;;12.00;91.60;;;;;;5018183;28;20068;-73
2022/04/07 05:56:48;;;;;;;1.30;0.40;;;12.00;91.50;;;;;;5024877;28;20073;-74
2022/04/07 05:59:15;;;;;;;1.05;0.40;;;12.00;91.60;;;;;;5004835;28;20073;-73
2022/04/07 06:01:43;;;;;;;1.60;0.70;;;12.00;91.50;;;;;;5023935;28;20034;-73
2022/04/07 06:04:10;;;;;;;0.90;0.35;;;12.00;91.60;;;;;;5025402;28;20045;-73
2022/04/07 06:06:36;;;;;;;1.35;0.50;;;12.00;91.60;;;;;;5023783;28;20155;-74
2022/04/07 06:09:04;;;;;;;1.75;0.40;;;12.00;91.60;;;;;;5021357;28;20041;-72
2022/04/07 06:11:31;;;;;;;1.15;0.50;;;12.00;91.60;;;;;;5018713;28;20077;-74
2022/04/07 06:13:57;;;;;;;0.90;0.30;;;12.00;91.60;;;;;;5011978;28;20396;-74
2022/04/07 06:16:24;;;;;;;0.98;0.25;;;12.00;91.70;;;;;;5019627;28;20045;-74
2022/04/07 06:18:53;;;;;;;1.23;0.40;;;12.00;91.60;;;;;;5029458;28;20038;-75
2022/04/07 06:21:20;;;;;;;1.73;0.68;;;12.00;91.60;;;;;;5029235;28;20045;-74
2022/04/07 06:23:47;;;;;;;1.48;0.30;;;12.00;91.70;;;;;;5015486;28;20132;-75
2022/04/07 06:26:14;;;;;;;0.90;0.32;;;12.00;91.50;;;;;;5016426;28;20048;-73
2022/04/07 06:28:42;;;;;;;2.60;0.40;;;12.00;91.60;;;;;;5005563;28;20038;-72
2022/04/07 06:31:09;;;;;;;0.98;0.30;;;12.00;91.60;;;;;;5019559;28;20045;-74
2022/04/07 06:33:36;;;;;;;0.70;0.30;;;12.00;91.60;;;;;;5014423;28;20393;-73
2022/04/07 06:36:05;;;;;;;0.88;0.30;;;12.00;91.70;;;;;;5017247;28;20042;-73
2022/04/07 06:38:33;;;;;;;0.93;0.30;;;12.00;91.70;;;;;;5022474;28;20103;-73
2022/04/07 06:41:00;;;;;;;0.80;0.30;;;12.00;91.70;;;;;;5026193;28;20041;-73
2022/04/07 06:43:27;;;;;;;0.77;0.35;;;12.00;91.70;;;;;;5017489;28;20045;-73
2022/04/07 06:45:54;;;;;;;1.40;0.30;;;12.00;91.70;;;;;;5021285;28;20049;-74
2022/04/07 06:48:21;;;;;;;1.13;0.40;;;12.00;91.70;;;;;;5024580;28;20040;-73
2022/04/07 06:50:47;;;;;;;0.70;0.40;;;12.00;91.60;;;;;;5001095;28;20132;-75
2022/04/07 06:53:16;;;;;;;1.20;0.30;;;12.00;91.70;;;;;;5020851;28;20041;-74
2022/04/07 06:55:44;;;;;;;0.70;0.30;;;12.00;91.70;;;;;;5027244;28;20132;-73
2022/04/07 06:58:12;;;;;;;1.60;0.30;;;12.00;91.70;;;;;;5017226;28;20049;-74
2022/04/07 07:00:45;;;;;;;0.90;0.40;;;12.00;91.80;;;;;;5022355;28;20038;-72
2022/04/07 07:03:15;;;;;;;1.83;0.35;;;12.00;91.70;;;;;;5018217;28;20057;-72
2022/04/07 07:05:42;;;;;;;0.60;0.30;;;12.00;91.70;;;;;;5025245;28;20702;-73
2022/04/07 07:08:14;;;;;;;0.95;0.30;;;12.00;91.80;;;;;;5017656;28;20050;-74
2022/04/07 07:10:43;;;;;;;1.23;0.38;;;12.00;91.70;;;;;;5019001;28;20135;-72
2022/04/07 07:13:10;;;;;;;1.55;0.50;;;12.00;91.80;;;;;;5019516;28;20045;-73
2022/04/07 07:15:37;;;;;;;1.10;0.30;;;12.00;91.70;;;;;;5020618;28;21112;-73
2022/04/07 07:18:04;;;;;;;1.42;0.43;;;12.00;91.80;;;;;;5007101;28;20072;-74
2022/04/07 07:20:31;;;;;;;0.93;0.30;;;12.00;91.80;;;;;;5028082;28;20478;-73
2022/04/07 07:22:58;;;;;;;1.10;0.50;;;12.00;91.80;;;;;;5025614;28;20507;-73
2022/04/07 07:25:25;;;;;;;0.98;0.30;;;12.00;91.90;;;;;;5023937;28;20137;-73
2022/04/07 07:27:53;;;;;;;1.30;0.40;;;12.00;91.80;;;;;;5021995;28;20050;-74
2022/04/07 07:30:20;;;;;;;0.73;0.30;;;12.00;91.70;;;;;;5020786;28;20037;-72
2022/04/07 07:32:48;;;;;;;1.63;0.30;;;12.00;91.80;;;;;;5012157;28;20072;-71
2022/04/07 07:35:18;;;;;;;0.80;0.30;;;12.00;91.80;;;;;;5017231;28;20037;-73
2022/04/07 07:37:50;;;;;;;1.88;0.40;;;12.00;91.80;;;;;;5013056;28;20050;-74
2022/04/07 07:40:17;;;;;;;0.50;0.30;;;12.00;91.90;;;;;;5018825;28;20103;-72
2022/04/07 07:42:44;;;;;;;0.80;0.30;;;12.00;91.90;;;;;;5025230;28;20064;-75
2022/04/07 07:45:12;;;;;;;0.88;0.30;;;12.00;91.80;;;;;;5018361;28;20053;-73
2022/04/07 07:47:41;;;;;;;0.98;0.32;;;12.00;91.90;;;;;;5024785;28;20063;-74
2022/04/07 07:50:09;;;;;;;1.38;0.55;;;12.00;91.90;;;;;;5015380;28;20057;-73
2022/04/07 07:52:36;;;;;;;1.08;0.35;;;12.00;91.80;;;;;;5016449;28;20594;-73
2022/04/07 07:55:04;;;;;;;1.00;0.30;;;12.00;91.90;;;;;;4994249;28;20045;-74
2022/04/07 07:57:31;;;;;;;0.80;0.30;;;12.00;91.90;;;;;;5011659;28;20049;-72
2022/04/07 07:59:58;;;;;;;1.00;0.30;;;12.00;91.90;;;;;;5021379;28;20102;-72
2022/04/07 08:02:27;;;;;;;0.77;0.30;;;12.00;92.10;;;;;;5019451;28;20041;-73
2022/04/07 08:04:54;;;;;;;0.45;0.20;;;12.00;92.00;;;;;;5000879;28;20091;-74
2022/04/07 08:07:22;;;;;;;2.63;0.40;;;12.00;91.80;;;;;;5025417;28;20037;-74
2022/04/07 08:09:49;;;;;;;0.73;0.20;;;12.10;91.90;;;;;;5000601;28;20043;-73
2022/04/07 08:12:16;;;;;;;1.73;0.45;;;12.10;91.70;;;;;;5018133;28;20060;-73
2022/04/07 08:14:43;;;;;;;1.27;0.25;;;12.10;91.70;;;;;;5018857;28;20107;-74
2022/04/07 08:17:10;;;;;;;0.93;0.30;;;12.10;92.00;;;;;;5016580;28;20148;-73
2022/04/07 08:19:40;;;;;;;0.88;0.25;;;12.10;92.10;;;;;;5023776;28;20048;-73
2022/04/07 08:22:07;;;;;;;4.43;0.30;;;12.10;91.90;;;;;;5025180;28;20067;-73
2022/04/07 08:24:34;;;;;;;0.88;0.28;;;12.00;91.90;;;;;;5018169;28;20072;-73
2022/04/07 08:27:01;;;;;;;0.88;0.40;;;12.10;92.30;;;;;;5027095;28;20071;-74
2022/04/07 08:29:28;;;;;;;1.08;0.30;;;12.10;92.10;;;;;;5015686;28;20049;-73
2022/04/07 08:31:55;;;;;;;2.00;0.45;;;12.10;92.20;;;;;;4997537;28;20152;-73
2022/04/07 08:34:24;;;;;;;1.45;0.30;;;12.10;92.30;;;;;;5024139;28;20107;-73
2022/04/07 08:36:53;;;;;;;3.97;0.30;;;12.10;92.30;;;;;;5023432;28;20045;-73
2022/04/07 08:39:20;;;;;;;0.55;0.20;;;12.20;92.30;;;;;;5024443;28;20068;-74
2022/04/07 08:41:48;;;;;;;0.65;0.20;;;12.20;92.60;;;;;;5023572;28;20115;-73
2022/04/07 08:44:17;;;;;;;0.77;0.30;;;12.20;92.60;;;;;;5022790;28;20037;-74
2022/04/07 08:46:51;;;;;;;0.60;0.20;;;12.20;92.50;;;;;;5021671;28;20050;-74
2022/04/07 08:49:21;;;;;;;0.47;0.20;;;12.20;92.50;;;;;;5021111;28;20053;-74
2022/04/07 08:51:48;;;;;;;1.17;0.30;;;12.20;92.50;;;;;;5033469;28;20044;-73
2022/04/07 08:54:16;;;;;;;2.17;0.30;;;12.20;92.50;;;;;;5027295;28;20049;-74
2022/04/07 08:56:43;;;;;;;1.05;0.45;;;12.20;92.60;;;;;;5019210;28;20136;-72
2022/04/07 08:59:10;;;;;;;0.52;0.20;;;12.20;92.70;;;;;;5032362;28;20041;-73
2022/04/07 09:01:37;;;;;;;2.35;0.30;;;12.20;92.80;;;;;;5031773;28;20075;-72
2022/04/07 09:04:04;;;;;;;2.10;0.40;;;12.20;93.00;;;;;;5020114;28;20052;-73
2022/04/07 09:06:34;;;;;;;1.00;0.28;;;12.20;93.10;;;;;;5021884;28;20119;-73
2022/04/07 09:09:10;;;;;;;0.55;0.30;;;12.20;92.90;;;;;;5026484;28;20053;-73
2022/04/07 09:11:38;;;;;;;0.60;0.30;;;12.20;93.00;;;;;;5016226;28;20128;-74
2022/04/07 09:14:05;;;;;;;2.70;0.30;;;12.20;93.30;;;;;;5022416;28;20038;-76
2022/04/07 09:16:33;;;;;;;0.77;0.30;;;12.20;93.30;;;;;;5031515;28;20045;-73
2022/04/07 09:19:02;;;;;;;0.95;0.30;;;12.20;93.30;;;;;;4993003;28;20113;-72
2022/04/07 09:21:31;;;;;;;0.70;0.30;;;12.20;93.10;;;;;;5007985;28;20567;-74
2022/04/07 09:24:00;;;;;;;1.20;0.30;;;12.20;93.30;;;;;;5018721;28;20426;-73
2022/04/07 09:26:29;;;;;;;1.63;0.20;;;12.20;93.40;;;;;;5017301;28;20061;-73
2022/04/07 09:28:58;;;;;;;0.65;0.20;;;12.20;93.40;;;;;;5016229;28;20045;-75
2022/04/07 09:31:25;;;;;;;1.83;0.30;;;12.20;93.20;;;;;;5013347;28;20061;-74
2022/04/07 09:33:56;;;;;;;0.30;0.20;;;12.20;93.20;;;;;;5013680;28;20405;-73
2022/04/07 09:36:24;;;;;;;2.13;0.40;;;12.20;93.00;;;;;;5013929;28;20053;-74
2022/04/07 09:38:52;;;;;;;1.75;0.35;;;12.20;92.90;;;;;;4993793;28;20038;-74
2022/04/07 09:41:20;;;;;;;1.35;0.40;;;12.20;92.80;;;;;;5015869;28;20064;-74
2022/04/07 09:43:49;;;;;;;1.88;0.50;;;12.20;92.90;;;;;;5015730;28;20041;-74
2022/04/07 09:46:19;;;;;;;1.02;0.30;;;12.20;92.90;;;;;;5011621;28;20053;-77
2022/04/07 09:49:04;;;;;;;0.80;0.32;;;12.20;93.10;;;;;;5015941;28;20041;-75
2022/04/07 09:51:36;;;;;;;0.88;0.30;;;12.30;92.90;;;;;;5014425;28;20198;-74
2022/04/07 09:54:07;;;;;;;2.35;0.40;;;12.30;93.20;;;;;;5014106;28;20049;-76
2022/04/07 09:56:34;;;;;;;1.65;0.40;;;12.30;93.20;;;;;;5012399;28;20124;-74
2022/04/07 09:59:05;;;;;;;0.95;0.45;;;12.30;93.50;;;;;;5016540;28;20568;-73
2022/04/07 10:01:35;;;;;;;1.58;0.40;;;12.30;93.50;;;;;;5013592;28;20047;-74
2022/04/07 10:04:04;;;;;;;1.60;0.40;;;12.30;93.70;;;;;;5013101;28;20149;-73
2022/04/07 10:06:32;;;;;;;3.92;0.50;;;12.30;93.80;;;;;;5010091;28;20042;-72
2022/04/07 10:09:01;;;;;;;4.22;0.50;;;12.40;94.10;;;;;;5013364;28;20073;-74
2022/04/07 10:11:30;;;;;;;2.05;0.40;;;12.40;94.40;;;;;;5016136;28;20128;-73
2022/04/07 10:13:58;;;;;;;1.10;0.40;;;12.40;94.50;;;;;;5017337;28;20046;-72
2022/04/07 10:16:26;;;;;;;1.90;0.40;;;12.50;94.80;;;;;;5000793;28;20073;-74
2022/04/07 10:18:58;;;;;;;1.15;0.30;;;12.50;94.90;;;;;;5019268;28;20141;-74
2022/04/07 10:21:39;;;;;;;4.00;0.40;;;12.50;95.00;;;;;;4998221;28;20088;-74
2022/04/07 10:24:32;;;;;;;0.98;0.40;;;12.50;95.10;;;;;;5018512;28;20053;-72
2022/04/07 10:27:02;;;;;;;5.45;0.50;;;12.60;95.30;;;;;;5010091;28;20511;-73
2022/04/07 10:29:30;;;;;;;1.65;0.40;;;12.60;95.40;;;;;;5022453;28;20073;-73
2022/04/07 10:32:22;;;;;;;2.15;0.50;;;12.60;95.40;;;;;;5015463;28;20455;-76
2022/04/07 10:34:58;;;;;;;;;;;12.60;95.30;;;;;;5022456;28;20135;-73
2022/04/07 10:37:33;;;;;;;0.77;0.30;;;12.60;95.10;;;;;;5014704;28;19940;-76
2022/04/07 10:40:37;;;;;;;2.28;0.30;;;12.60;95.00;;;;;;5017997;28;20033;-74
2022/04/07 10:43:13;;;;;;;3.30;0.50;;;12.60;94.90;;;;;;5019393;28;20091;-74
2022/04/07 10:45:42;;;;;;;1.20;0.40;;;12.60;94.90;;;;;;5017320;28;20061;-73
2022/04/07 10:48:23;;;;;;;1.30;0.45;;;12.60;95.00;;;;;;5017556;28;20033;-73
2022/04/07 10:50:54;;;;;;;2.95;0.40;;;12.60;94.80;;;;;;5019718;28;20050;-73
2022/04/07 10:53:26;;;;;;;4.78;0.40;;;12.70;95.10;;;;;;5018424;28;20056;-75
2022/04/07 10:56:02;;;;;;;1.48;0.43;;;12.70;94.90;;;;;;5018942;28;20065;-75
2022/04/07 10:58:39;;;;;;;3.03;0.65;;;12.60;94.80;;;;;;5020632;28;20060;-75
2022/04/07 11:01:07;;;;;;;3.40;0.55;;;12.70;94.60;;;;;;5025741;28;20091;-74
2022/04/07 11:03:35;;;;;;;2.25;0.60;;;12.60;94.50;;;;;;5026963;28;20128;-73
2022/04/07 11:06:06;;;;;;;5.25;0.60;;;12.60;94.60;;;;;;5005944;28;20508;-76
2022/04/07 11:08:33;;;;;;;1.97;0.90;;;12.60;94.40;;;;;;5024981;28;20145;-75
2022/04/07 11:11:00;;;;;;;3.10;0.63;;;12.70;94.40;;;;;;5018328;28;20053;-75
2022/04/07 11:13:44;;;;;;;1.05;0.40;;;12.60;94.20;;;;;;5023435;28;20100;-75
2022/04/07 11:16:19;;;;;;;1.80;0.60;;;12.70;94.30;;;;;;5018721;28;20164;-74
2022/04/07 11:19:00;;;;;;;3.40;0.55;;;12.70;94.20;;;;;;4995897;28;20136;-74
2022/04/07 11:21:46;;;;;;;3.67;0.50;;;12.70;94.20;;;;;;5019525;28;20046;-73
2022/04/07 11:24:23;;;;;;;1.73;0.60;;;12.70;94.10;;;;;;5017291;28;20049;-73
2022/04/07 11:26:51;;;;;;;1.23;0.40;;;12.70;94.10;;;;;;5014227;28;20299;-73
2022/04/07 11:29:31;;;;;;;2.33;0.50;;;12.70;94.30;;;;;;5016697;28;20056;-73
2022/04/07 11:32:07;;;;;;;3.65;0.50;;;12.70;94.30;;;;;;5020849;28;20053;-73
2022/04/07 11:34:50;;;;;;;2.83;0.40;;;12.70;94.00;;;;;;5026649;28;20071;-71
2022/04/07 11:37:31;;;;;;;4.30;0.75;;;12.80;94.00;;;;;;5004075;28;20049;-72
2022/04/07 11:39:57;;;;;;;2.83;0.60;;;12.80;93.90;;;;;;5011953;28;20053;-72
2022/04/07 11:42:24;;;;;;;1.65;0.50;;;12.80;93.90;;;;;;5028653;28;20056;-74
2022/04/07 11:44:59;;;;;;;2.58;0.80;;;12.80;93.80;;;;;;5039712;28;20095;-74
2022/04/07 11:47:30;;;;;;;2.10;0.50;;;12.80;93.60;;;;;;5022561;28;20060;-74
2022/04/07 11:49:57;;;;;;;1.10;0.43;;;12.80;93.50;;;;;;5023427;28;20369;-76
2022/04/07 11:52:25;;;;;;;7.32;0.68;;;12.80;93.50;;;;;;5024877;28;20131;-72
2022/04/07 11:54:58;;;;;;;1.42;0.45;;;12.80;93.40;;;;;;5018746;28;20060;-73
2022/04/07 11:57:26;;;;;;;4.00;0.80;;;12.80;93.30;;;;;;5014777;28;20045;-72
2022/04/07 11:59:56;;;;;;;2.60;0.50;;;12.80;93.20;;;;;;5019134;28;20049;-73
2022/04/07 12:02:23;;;;;;;5.03;0.65;;;12.80;93.10;;;;;;5001602;28;20046;-73
2022/04/07 12:05:01;;;;;;;2.42;0.65;;;12.80;93.00;;;;;;5016093;28;20059;-73
2022/04/07 12:07:29;;;;;;;2.90;0.60;;;12.80;92.90;;;;;;5020925;28;20060;-72
2022/04/07 12:10:05;;;;;;;3.00;0.50;;;12.70;92.80;;;;;;5017958;28;20073;-75
2022/04/07 12:12:33;;;;;;;2.28;0.70;;;12.70;92.90;;;;;;5013815;28;20049;-74
2022/04/07 12:15:00;;;;;;;2.38;0.70;;;12.80;92.70;;;;;;5012957;28;20077;-72
2022/04/07 12:17:35;;;;;;;5.30;0.60;;;12.70;92.70;;;;;;5018127;28;20044;-73
2022/04/07 12:20:07;;;;;;;2.97;0.73;;;12.70;92.60;;;;;;5013542;28;20057;-74
2022/04/07 12:22:37;;;;;;;3.13;0.80;;;12.70;92.90;;;;;;5000239;28;20076;-73
2022/04/07 12:25:11;;;;;;;3.45;0.73;;;12.70;92.60;;;;;;4987794;28;20103;-73
2022/04/07 12:28:10;;;;;;;2.85;0.70;;;12.70;92.70;;;;;;5014700;28;20050;-74
2022/04/07 12:30:51;;;;;;;2.25;0.70;;;12.80;92.70;;;;;;5015092;28;20496;-75
2022/04/07 12:33:37;;;;;;;9.40;0.85;;;12.70;92.60;;;;;;5013828;28;20052;-74
2022/04/07 12:36:04;;;;;;;5.88;0.63;;;12.80;92.60;;;;;;5020077;28;20041;-73
2022/04/07 12:38:31;;;;;;;9.30;0.95;;;12.80;92.60;;;;;;5018417;28;20033;-75
2022/04/07 12:41:10;;;;;;;12.85;1.00;;;12.80;92.50;;;;;;5019005;28;20041;-73
2022/04/07 12:43:44;;;;;;;10.02;1.63;;;12.80;92.60;;;;;;5016651;28;20042;-73
2022/04/07 12:46:11;;;;;;;14.65;1.20;;;12.80;92.50;;;;;;5016599;28;20072;-73
2022/04/07 12:48:38;;;;;;;10.23;1.15;;;12.80;92.30;;;;;;5015550;28;20056;-74
2022/04/07 12:51:23;;;;;;;12.07;1.35;;;12.80;92.30;;;;;;4993156;28;20053;-76
2022/04/07 12:53:50;;;;;;;15.30;1.55;;;12.80;92.10;;;;;;5020137;28;20507;-73
2022/04/07 12:56:26;;;;;;;6.68;0.90;;;12.80;92.00;;;;;;5019327;28;20396;-74
2022/04/07 12:59:01;;;;;;;12.23;1.17;;;12.80;92.10;;;;;;5015310;28;20326;-76